Briefing drone pour Andrezieux-boutheon

Rechercher une autre localisation

Conditions de vol :


Nous sommes le : Jeudi 06 octobre 2022
Il est 11:34 UTC (13:34 LT)

Lever de soleil : 05:20 UTC (07:20 LT)
Coucher de soleil : 17:41 UTC (19:41 LT)

Météo

L'essentiel des conditions de vol

VIGILANCE MÉTÉO FRANCE - Loire (42)
Pas de vigilances particulieres
CARTES DES FRONTS
METAR de LFMH
LFMH 061130Z AUTO 16003KT 120V250 9999 FEW019 OVC036 18/13 Q1031

Date d'émission: 06/10/2022
Heure d'émission: 11:30 UTC
Vent: 160° (variable du 120° au 250°) pour 3 KT (6 km/h)
Visibilité horizontale: > 10 km
Plafond :
- Peu de nuages à 1900ft (579m)
- Couvert à 3600ft (1097m)
Température: 18 °C
Point de rosée: 13 °C
Humidité: 73%
Pression (QNH): 1031 hPa
TAF de LFMH
LFMH 161901Z 1619/1712 CNL

Conditions prévues :

Heure d'émission : Bulletin éffectué le 16 à 19:00 UTC
Prévision : Valide du 16 a 19:00 UTC au 17 a 12:00 UTC
Nuages : à 0ft (0 m)
WEBCAM POUR ANDREZIEUX-BOUTHEON

Réglementation

Voler en sécurité

CARTES AERONAUTIQUE 1/500.000
CARTE AZBA (Reseau basse altitude)
CARTES VAC (LFMH)
SUP AIP




Chargement des AIP...
NOTAM (ANDREZIEUX-BOUTHEON + Terrain à proximité / FIR )




Chargement des NOTAMS...
CONTACT PREFECTURE 42


Avertissement : Les données mises à disposition sont indicatives. Oxygène Drone ne pourra être tenu responsable de dégâts causés aux biens et aux personnes.